Port Morien, Canada
Current Conditions -  °F | °C
As of 8:00 PM on Wednesday 26 Nov 2014 (Local Time) from CYQY Reporting Station
Light Rain Light Rain  
Wind Chill: 36°   Ceiling: 7200
Heat Index: 39°   Visibility: 10mi
Dew Point: 32°   Wind: 5mph
Humidity: 75%   Direction: 350°N
Pressure: 30.2"   Gusts: NA
Location:  46.13°N, 59.88°W
Report Text: CYQY 270000Z 35004KT 10SM -RA OVC072 04/00 A3020 RMK AC8 SLP227
Loading
Personal Weather Stations






























Interactive Weather Map New forecast layout! Learn more

10-Day Weather Forecast

Advertisements
Track Severe Weather on mobile